Time;durP1;ratioP1;P1;durP2;ratioP2;P2;SDS_P1;SDS_P2;PMS_P1;PMS_P2;Temp;Humidity;BMP_temperature;BMP_pressure;BME280_temperature;BME280_humidity;BME280_pressure;Samples;Min_cycle;Max_cycle;Signal;HPM_P1;HPM_P2
2022/08/11 00:01:25;;;;;;;2.47;1.67;;;26.00;66.30;;;;;;5053505;28;20403;-58
2022/08/11 00:04:02;;;;;;;1.75;1.40;;;26.00;66.40;;;;;;5053551;28;20025;-59
2022/08/11 00:06:32;;;;;;;1.95;1.52;;;25.90;66.30;;;;;;5053292;28;20043;-58
2022/08/11 00:08:59;;;;;;;3.42;1.60;;;25.80;66.80;;;;;;5052988;28;20025;-58
2022/08/11 00:11:50;;;;;;;3.50;1.60;;;25.70;67.60;;;;;;5053302;28;20017;-58
2022/08/11 00:14:29;;;;;;;2.08;1.77;;;25.50;68.50;;;;;;5053320;28;20021;-58
2022/08/11 00:17:03;;;;;;;3.53;1.80;;;25.40;68.80;;;;;;5053109;28;20029;-58
2022/08/11 00:19:34;;;;;;;4.03;1.85;;;25.20;69.70;;;;;;5053227;28;20020;-58
2022/08/11 00:22:01;;;;;;;2.10;1.60;;;25.00;71.30;;;;;;5053091;28;20033;-58
2022/08/11 00:24:35;;;;;;;3.25;1.60;;;24.90;72.00;;;;;;5053180;28;20029;-59
2022/08/11 00:27:02;;;;;;;2.80;1.50;;;24.80;71.90;;;;;;5052630;28;20025;-59
2022/08/11 00:29:28;;;;;;;2.35;1.80;;;24.60;72.80;;;;;;5053108;28;20086;-58
2022/08/11 00:31:56;;;;;;;2.90;1.70;;;24.50;73.20;;;;;;5053067;28;20028;-58
2022/08/11 00:34:25;;;;;;;3.47;1.75;;;24.40;73.10;;;;;;5052922;28;20082;-59
2022/08/11 00:36:56;;;;;;;1.88;1.77;;;24.40;72.70;;;;;;5053050;28;20095;-58
2022/08/11 00:39:24;;;;;;;2.42;1.60;;;24.50;73.30;;;;;;5052742;28;20089;-58
2022/08/11 00:42:09;;;;;;;1.70;1.60;;;24.30;73.30;;;;;;5052580;28;20060;-59
2022/08/11 00:44:50;;;;;;;2.95;1.90;;;24.30;73.10;;;;;;5052655;28;20045;-58
2022/08/11 00:47:38;;;;;;;2.85;1.95;;;24.40;73.60;;;;;;5052756;28;20036;-58
2022/08/11 00:50:04;;;;;;;4.68;2.50;;;24.20;74.60;;;;;;5052739;28;20478;-58
2022/08/11 00:52:49;;;;;;;4.18;2.40;;;24.10;74.40;;;;;;5052780;28;20032;-58
2022/08/11 00:55:43;;;;;;;5.72;2.10;;;24.00;75.40;;;;;;5052451;28;20044;-59
2022/08/11 00:58:17;;;;;;;2.03;1.80;;;23.80;75.70;;;;;;5052418;28;20086;-58
2022/08/11 01:01:11;;;;;;;3.70;1.65;;;23.60;75.20;;;;;;5052635;28;20028;-58
2022/08/11 01:03:37;;;;;;;1.85;1.60;;;23.40;76.90;;;;;;5052589;28;20112;-58
2022/08/11 01:06:48;;;;;;;3.95;2.22;;;23.40;76.40;;;;;;5052483;28;20488;-58
2022/08/11 01:09:35;;;;;;;1.92;1.73;;;23.40;77.70;;;;;;5047446;28;20041;-58
2022/08/11 01:12:18;;;;;;;4.45;2.35;;;23.40;77.60;;;;;;5052373;28;20082;-59
2022/08/11 01:15:12;;;;;;;3.22;2.20;;;23.40;77.20;;;;;;5052349;28;20029;-58
2022/08/11 01:18:16;;;;;;;1.75;1.60;;;23.30;77.20;;;;;;5052193;28;20060;-58
2022/08/11 01:21:18;;;;;;;5.07;2.20;;;23.20;78.20;;;;;;5052323;28;20028;-58
2022/08/11 01:24:21;;;;;;;3.13;2.53;;;23.20;78.40;;;;;;5052037;28;20144;-59
2022/08/11 01:27:21;;;;;;;4.03;2.13;;;23.20;78.50;;;;;;5052069;28;20130;-58
2022/08/11 01:30:19;;;;;;;5.25;2.05;;;23.00;78.60;;;;;;5052127;28;20493;-58
2022/08/11 01:33:18;;;;;;;1.85;1.70;;;22.90;79.70;;;;;;5052082;28;20525;-59
2022/08/11 01:36:22;;;;;;;2.63;1.60;;;22.80;79.50;;;;;;5052350;28;20033;-59
2022/08/11 01:39:25;;;;;;;2.08;1.70;;;22.90;80.80;;;;;;5051565;28;20047;-58
2022/08/11 01:45:28;;;;;;;3.92;1.88;;;22.70;81.70;;;;;;5029954;28;20052;-58
2022/08/11 01:48:07;;;;;;;;;;;22.70;81.50;;;;;;5030424;28;20037;-58
2022/08/11 01:50:56;;;;;;;2.35;1.85;;;22.60;81.10;;;;;;5029805;28;19905;-58
2022/08/11 01:53:39;;;;;;;2.72;1.90;;;22.60;80.90;;;;;;5029556;28;20029;-58
2022/08/11 01:56:35;;;;;;;2.72;1.75;;;22.70;80.60;;;;;;5029779;28;20124;-58
2022/08/11 01:59:18;;;;;;;2.83;1.80;;;22.50;81.70;;;;;;5029702;28;20182;-59
2022/08/11 02:01:53;;;;;;;2.35;1.80;;;22.40;81.80;;;;;;5029812;28;20041;-59
2022/08/11 02:04:49;;;;;;;3.97;2.20;;;22.30;82.20;;;;;;5029705;28;20063;-59
2022/08/11 02:07:21;;;;;;;2.20;2.00;;;22.20;82.00;;;;;;5029536;28;20033;-58
2022/08/11 02:09:53;;;;;;;2.45;1.88;;;22.10;82.20;;;;;;5029630;28;20072;-59
2022/08/11 02:12:43;;;;;;;3.97;2.20;;;22.30;82.70;;;;;;5029639;28;20026;-58
2022/08/11 02:15:23;;;;;;;2.40;2.20;;;22.20;83.00;;;;;;5029549;28;20044;-58
2022/08/11 02:18:09;;;;;;;2.97;1.80;;;22.00;83.60;;;;;;5029679;28;20159;-58
2022/08/11 02:24:05;;;;;;;2.90;2.15;;;21.90;83.70;;;;;;5051919;28;20044;-58
2022/08/11 02:26:45;;;;;;;3.22;2.00;;;21.80;84.90;;;;;;5051643;28;20044;-58
2022/08/11 02:29:22;;;;;;;1.80;1.70;;;21.60;85.10;;;;;;5051546;28;20091;-58
2022/08/11 02:35:24;;;;;;;2.53;2.05;;;21.60;85.20;;;;;;5055266;28;20421;-58
2022/08/11 02:37:58;;;;;;;3.03;1.80;;;21.70;84.50;;;;;;5054510;28;20111;-58
2022/08/11 02:41:00;;;;;;;2.85;2.00;;;21.80;84.80;;;;;;5055155;28;20024;-58
2022/08/11 02:43:48;;;;;;;4.43;1.90;;;21.60;84.50;;;;;;5051054;28;20053;-58
2022/08/11 02:46:32;;;;;;;2.45;2.00;;;21.50;85.30;;;;;;5054966;28;20517;-58
2022/08/11 02:52:16;;;;;;;2.33;1.90;;;21.50;84.60;;;;;;5054401;28;20044;-58
2022/08/11 02:55:20;;;;;;;3.67;1.92;;;21.50;86.50;;;;;;5054938;28;20023;-58
2022/08/11 02:57:56;;;;;;;3.28;1.90;;;21.60;86.40;;;;;;5053493;28;20060;-58
2022/08/11 03:00:24;;;;;;;2.13;1.80;;;21.40;87.10;;;;;;5053364;28;20033;-58
2022/08/11 03:03:17;;;;;;;3.10;1.85;;;21.30;86.00;;;;;;5054656;28;20537;-58
2022/08/11 03:06:16;;;;;;;3.35;1.88;;;21.40;86.60;;;;;;5054536;28;20413;-58
2022/08/11 03:09:00;;;;;;;2.40;1.70;;;21.30;87.10;;;;;;5054538;28;20513;-58
2022/08/11 03:17:36;;;;;;;3.90;2.13;;;21.30;86.00;;;;;;5054554;28;20555;-58
2022/08/11 03:20:24;;;;;;;5.00;1.90;;;21.30;86.10;;;;;;5054098;28;20029;-58
2022/08/11 03:23:13;;;;;;;4.65;1.88;;;21.30;86.40;;;;;;5054227;28;20029;-58
2022/08/11 03:25:41;;;;;;;3.28;1.73;;;21.20;86.70;;;;;;5054172;28;20021;-58
2022/08/11 03:28:39;;;;;;;3.05;1.80;;;21.20;85.90;;;;;;5054139;28;20052;-58
2022/08/11 03:31:18;;;;;;;3.60;2.10;;;21.40;85.30;;;;;;5054245;28;20025;-58
2022/08/11 03:34:03;;;;;;;4.20;2.03;;;21.40;84.30;;;;;;5054062;28;20025;-58
2022/08/11 03:37:06;;;;;;;3.22;2.30;;;21.50;84.60;;;;;;5053956;28;20500;-58
2022/08/11 03:39:34;;;;;;;7.00;2.67;;;21.50;86.20;;;;;;5053687;28;20071;-58
2022/08/11 03:42:34;;;;;;;5.00;3.00;;;21.40;86.70;;;;;;5052978;28;20052;-58
2022/08/11 03:45:18;;;;;;;3.30;3.00;;;21.40;87.50;;;;;;5053703;28;20410;-58
2022/08/11 03:47:50;;;;;;;3.63;3.10;;;21.30;86.70;;;;;;5054127;28;20052;-58
2022/08/11 03:50:34;;;;;;;3.10;2.80;;;21.30;86.60;;;;;;5053345;28;20029;-58
2022/08/11 03:53:26;;;;;;;4.38;2.70;;;21.20;87.80;;;;;;5053814;28;20495;-58
2022/08/11 03:56:04;;;;;;;4.38;3.05;;;21.20;87.70;;;;;;5053920;28;20054;-58
2022/08/11 03:59:08;;;;;;;3.72;2.67;;;21.10;87.80;;;;;;5053686;28;20040;-58
2022/08/11 04:02:04;;;;;;;4.47;2.50;;;21.10;88.00;;;;;;5053601;28;20029;-59
2022/08/11 04:04:48;;;;;;;2.90;2.55;;;21.00;87.90;;;;;;5031047;28;20550;-59
2022/08/11 04:07:23;;;;;;;3.35;2.72;;;20.90;88.10;;;;;;5031507;28;20529;-58
2022/08/11 04:09:58;;;;;;;4.10;2.80;;;20.80;88.60;;;;;;5031273;28;20497;-58
2022/08/11 04:12:51;;;;;;;5.18;2.78;;;20.70;88.50;;;;;;5031268;28;20025;-58
2022/08/11 04:16:01;;;;;;;3.17;2.55;;;20.80;88.90;;;;;;5031096;28;20033;-59
2022/08/11 04:18:48;;;;;;;5.22;2.50;;;20.80;88.10;;;;;;5030878;28;20048;-59
2022/08/11 04:21:44;;;;;;;3.30;2.40;;;20.70;89.00;;;;;;5031111;28;20021;-59
2022/08/11 04:24:51;;;;;;;5.07;2.60;;;20.60;88.80;;;;;;5031177;28;20040;-59
2022/08/11 04:27:45;;;;;;;8.13;2.70;;;20.60;88.20;;;;;;5025846;28;20040;-58
2022/08/11 04:30:18;;;;;;;9.93;2.90;;;20.70;88.50;;;;;;5031169;28;20025;-59
2022/08/11 04:33:20;;;;;;;4.63;2.45;;;20.70;88.90;;;;;;5030963;28;20064;-59
2022/08/11 04:35:52;;;;;;;3.60;2.50;;;20.60;89.00;;;;;;5031044;28;20116;-59
2022/08/11 04:38:27;;;;;;;2.83;2.42;;;20.60;89.10;;;;;;5030698;28;20045;-58
2022/08/11 04:41:13;;;;;;;7.40;2.50;;;20.50;88.90;;;;;;5031529;28;20029;-59
2022/08/11 04:44:25;;;;;;;2.38;2.20;;;20.40;89.40;;;;;;5032974;28;20045;-59
2022/08/11 04:46:56;;;;;;;4.00;2.30;;;20.40;89.30;;;;;;5032735;28;20117;-59
2022/08/11 05:02:39;;;;;;;2.65;2.30;;;20.20;90.10;;;;;;5010752;28;20533;-58
2022/08/11 05:05:31;;;;;;;2.88;2.38;;;20.30;90.30;;;;;;5010904;28;20077;-59
2022/08/11 05:08:34;;;;;;;5.22;2.30;;;20.20;90.60;;;;;;5010811;28;20057;-58
2022/08/11 05:11:36;;;;;;;4.80;2.65;;;20.10;90.50;;;;;;5010935;28;20037;-58
2022/08/11 05:37:31;;;;;;;7.20;2.15;;;20.10;88.90;;;;;;4952441;28;20533;-59
2022/08/11 05:56:55;;;;;;;3.20;1.90;;;20.90;83.40;;;;;;5052087;28;20056;-59
2022/08/11 05:59:23;;;;;;;8.35;1.95;;;21.00;83.30;;;;;;5051901;28;20028;-59
2022/08/11 06:01:50;;;;;;;3.97;1.83;;;21.00;83.30;;;;;;5052096;28;20108;-58
2022/08/11 06:04:27;;;;;;;4.90;2.17;;;21.00;83.80;;;;;;5052061;28;20374;-58
2022/08/11 06:06:58;;;;;;;8.25;2.33;;;21.00;85.10;;;;;;5055266;28;20083;-58
2022/08/11 06:09:30;;;;;;;8.15;2.10;;;21.10;84.90;;;;;;5055921;28;20029;-58
2022/08/11 06:11:59;;;;;;;6.45;1.95;;;21.10;85.30;;;;;;5055877;28;20494;-58
2022/08/11 06:14:27;;;;;;;7.40;2.30;;;21.20;85.10;;;;;;5055529;28;20494;-58
2022/08/11 06:16:58;;;;;;;6.25;2.75;;;21.20;85.60;;;;;;5055789;28;20029;-58
2022/08/11 06:19:32;;;;;;;11.43;2.83;;;21.30;85.90;;;;;;5055811;28;20040;-58
2022/08/11 06:22:00;;;;;;;8.10;2.80;;;21.30;86.60;;;;;;5055827;28;20029;-58
2022/08/11 06:24:28;;;;;;;8.45;2.70;;;21.20;87.00;;;;;;5055713;28;20035;-58
2022/08/11 06:26:55;;;;;;;12.15;3.20;;;21.20;86.90;;;;;;5055677;28;20033;-58
2022/08/11 06:29:22;;;;;;;9.00;2.80;;;21.40;86.80;;;;;;5055176;28;20025;-58
2022/08/11 06:31:57;;;;;;;7.07;3.00;;;21.60;85.90;;;;;;5055559;28;20398;-58
2022/08/11 06:35:03;;;;;;;4.40;2.78;;;21.70;85.50;;;;;;5055527;28;20026;-58
2022/08/11 06:37:56;;;;;;;11.02;6.13;;;21.90;86.40;;;;;;5055450;28;20134;-58
2022/08/11 06:41:28;;;;;;;9.05;5.13;;;22.10;84.10;;;;;;5055485;28;20031;-58
2022/08/11 06:43:41;;;;;;;10.55;8.07;;;22.20;84.90;;;;;;5054722;28;20094;-58
2022/08/11 06:46:10;;;;;;;14.23;8.13;;;22.30;83.80;;;;;;5055264;28;20021;-58
2022/08/11 06:48:40;;;;;;;15.02;9.00;;;22.60;83.20;;;;;;5055298;28;20040;-59
2022/08/11 06:51:11;;;;;;;14.18;10.38;;;22.80;82.90;;;;;;5055283;28;20033;-59
2022/08/11 06:53:39;;;;;;;18.30;10.73;;;23.10;82.20;;;;;;5055102;28;20107;-58
2022/08/11 07:01:46;;;;;;;24.52;20.67;;;24.00;80.40;;;;;;5055308;28;20086;-59
2022/08/11 07:04:20;;;;;;;31.70;22.95;;;24.20;79.40;;;;;;5054866;28;20044;-58
2022/08/11 07:15:58;;;;;;;95.20;68.63;;;25.30;76.50;;;;;;5032424;28;20028;-58
2022/08/11 07:30:04;;;;;;;182.90;136.68;;;26.20;74.70;;;;;;5032539;28;20127;-58
2022/08/11 07:32:35;;;;;;;171.43;130.10;;;26.50;74.70;;;;;;5032336;28;20099;-58
2022/08/11 07:35:16;;;;;;;172.43;132.80;;;26.70;74.40;;;;;;5032235;28;20497;-58
2022/08/11 07:37:53;;;;;;;191.70;147.25;;;26.90;74.90;;;;;;5032063;28;20391;-59
2022/08/11 07:40:23;;;;;;;205.63;155.75;;;27.10;74.40;;;;;;5031711;28;20458;-58
2022/08/11 07:42:51;;;;;;;209.52;158.88;;;27.30;74.40;;;;;;5031925;28;20116;-59
2022/08/11 07:53:33;;;;;;;227.13;176.52;;;28.10;73.40;;;;;;5054136;28;20075;-58
2022/08/11 07:56:01;;;;;;;223.82;176.20;;;28.30;72.30;;;;;;5053633;28;20056;-58
2022/08/11 08:17:56;;;;;;;243.75;203.07;;;30.20;69.40;;;;;;5053480;28;20402;-58
2022/08/11 08:20:27;;;;;;;244.75;205.93;;;30.60;70.00;;;;;;5053558;28;20576;-58
2022/08/11 08:22:56;;;;;;;282.52;249.15;;;30.90;69.90;;;;;;5053480;28;20017;-58
2022/08/11 08:25:26;;;;;;;309.38;266.58;;;31.10;68.60;;;;;;5053111;28;20104;-58
2022/08/11 08:27:55;;;;;;;300.60;262.52;;;31.20;68.20;;;;;;5052767;28;20032;-58
2022/08/11 08:33:07;;;;;;;286.30;247.07;;;31.40;68.60;;;;;;5053563;28;20433;-58
2022/08/11 08:35:35;;;;;;;281.63;239.88;;;31.60;68.00;;;;;;5053125;28;20055;-58
2022/08/11 08:38:01;;;;;;;279.88;246.40;;;31.80;67.80;;;;;;5052878;28;20037;-59
2022/08/11 08:40:28;;;;;;;284.08;240.50;;;31.90;66.90;;;;;;5052612;28;20029;-58
2022/08/11 08:43:03;;;;;;;276.10;239.32;;;31.90;67.50;;;;;;5052879;28;20029;-58
2022/08/11 08:45:33;;;;;;;276.60;236.85;;;31.80;68.50;;;;;;5052912;28;20029;-59
2022/08/11 08:48:26;;;;;;;272.45;236.60;;;31.60;68.20;;;;;;5052704;28;20029;-58
2022/08/11 08:53:53;;;;;;;278.80;245.00;;;31.80;68.70;;;;;;5052779;28;20120;-58
2022/08/11 08:56:26;;;;;;;291.45;245.77;;;31.80;67.20;;;;;;5052599;28;20075;-58
2022/08/11 08:58:53;;;;;;;274.98;244.82;;;31.60;68.00;;;;;;5052700;28;20032;-58
2022/08/11 09:01:21;;;;;;;269.48;237.70;;;31.40;68.90;;;;;;5052783;28;20113;-58
2022/08/11 09:03:47;;;;;;;273.48;242.88;;;31.10;69.50;;;;;;5052694;28;20017;-58
2022/08/11 09:06:16;;;;;;;286.85;247.18;;;31.00;68.90;;;;;;5052749;28;20025;-58
2022/08/11 09:08:43;;;;;;;286.73;255.18;;;31.00;68.90;;;;;;5052239;28;20078;-58
2022/08/11 09:13:55;;;;;;;273.38;243.13;;;30.70;70.20;;;;;;5052881;28;20035;-58
2022/08/11 09:16:22;;;;;;;280.20;239.95;;;30.80;70.00;;;;;;5052418;28;20553;-59
2022/08/11 09:18:48;;;;;;;270.38;235.55;;;30.80;69.90;;;;;;5052484;28;20032;-58
2022/08/11 09:21:15;;;;;;;277.30;245.73;;;30.60;69.80;;;;;;5051229;28;20385;-59
2022/08/11 09:29:32;;;;;;;304.38;262.67;;;30.50;69.40;;;;;;5030152;28;20075;-58
2022/08/11 09:31:59;;;;;;;285.50;254.07;;;30.40;70.00;;;;;;5030339;28;20029;-58
2022/08/11 09:34:26;;;;;;;282.65;251.40;;;30.10;70.00;;;;;;5030203;28;20541;-58
2022/08/11 09:44:45;;;;;;;270.88;238.38;;;30.10;70.00;;;;;;5034637;28;20075;-58
2022/08/11 09:45:13;;;;;;;261.33;224.02;;;29.90;70.60;;;;;;5034434;28;20045;-58
2022/08/11 09:47:41;;;;;;;244.98;207.07;;;29.80;70.80;;;;;;5034170;28;20030;-58
2022/08/11 09:50:09;;;;;;;235.52;204.43;;;30.00;70.70;;;;;;5034333;28;20522;-58
2022/08/11 09:52:38;;;;;;;225.27;193.40;;;29.90;70.60;;;;;;5033824;28;20041;-58
2022/08/11 09:55:09;;;;;;;226.38;190.77;;;30.10;71.60;;;;;;5034337;28;20025;-58
2022/08/11 10:00:29;;;;;;;207.38;168.13;;;30.30;70.30;;;;;;5035641;28;20430;-58
2022/08/11 10:02:56;;;;;;;188.00;158.20;;;30.40;70.40;;;;;;5036258;28;20025;-58
2022/08/11 10:08:11;;;;;;;182.10;149.25;;;30.90;71.30;;;;;;5036425;28;20036;-58
2022/08/11 10:10:38;;;;;;;168.27;138.27;;;31.00;70.40;;;;;;5036155;28;20037;-58
2022/08/11 10:13:07;;;;;;;164.13;137.60;;;31.20;69.70;;;;;;5035958;28;20486;-58
2022/08/11 10:15:37;;;;;;;167.13;139.27;;;31.30;70.10;;;;;;5035933;28;20029;-58
2022/08/11 10:21:09;;;;;;;165.45;139.38;;;31.50;69.50;;;;;;5035570;28;20540;-57
2022/08/11 10:26:51;;;;;;;222.13;190.55;;;31.80;69.70;;;;;;5035896;28;20048;-58
2022/08/11 10:34:49;;;;;;;280.52;249.98;;;32.30;69.20;;;;;;5035540;28;20071;-58
2022/08/11 10:37:18;;;;;;;330.15;294.42;;;32.40;69.60;;;;;;5035582;28;20061;-58
2022/08/11 10:39:45;;;;;;;333.52;298.17;;;32.30;68.60;;;;;;5051880;28;20095;-58
2022/08/11 10:45:00;;;;;;;351.10;314.15;;;32.50;70.30;;;;;;5055171;28;20536;-58
2022/08/11 10:47:33;;;;;;;374.08;334.33;;;32.50;70.40;;;;;;5055231;28;20063;-58
2022/08/11 11:01:07;;;;;;;397.63;355.90;;;32.80;67.70;;;;;;5055491;28;20043;-58
2022/08/11 11:03:34;;;;;;;394.80;353.38;;;32.80;68.00;;;;;;5054743;28;20051;-58
2022/08/11 11:06:10;;;;;;;388.83;348.27;;;32.90;67.90;;;;;;5054966;28;20143;-58
2022/08/11 11:08:53;;;;;;;367.35;329.13;;;33.00;68.10;;;;;;5053707;28;20052;-58
2022/08/11 11:11:21;;;;;;;329.25;294.50;;;33.10;67.00;;;;;;5054789;28;20482;-58
2022/08/11 11:19:25;;;;;;;315.00;281.25;;;33.10;66.10;;;;;;5054395;28;20068;-58
2022/08/11 11:21:54;;;;;;;164.43;146.45;;;33.20;66.80;;;;;;5054416;28;20064;-58
2022/08/11 11:24:49;;;;;;;41.70;37.28;;;33.60;63.90;;;;;;5054275;28;20029;-58
2022/08/11 11:27:30;;;;;;;49.08;43.85;;;33.80;61.70;;;;;;5031969;28;20034;-58
2022/08/11 11:30:06;;;;;;;55.50;48.05;;;33.60;63.70;;;;;;5031983;28;20041;-58
2022/08/11 11:32:34;;;;;;;61.65;54.72;;;33.90;62.10;;;;;;5031629;28;20751;-58
2022/08/11 11:35:07;;;;;;;73.88;63.20;;;33.90;62.50;;;;;;5031973;28;20048;-58
2022/08/11 11:37:34;;;;;;;69.95;62.05;;;34.00;62.00;;;;;;5048290;28;20041;-57
2022/08/11 11:40:01;;;;;;;81.28;72.38;;;34.30;61.50;;;;;;5031827;28;20022;-58
2022/08/11 11:42:28;;;;;;;80.90;72.07;;;34.30;61.30;;;;;;5031719;28;20494;-58
2022/08/11 11:44:54;;;;;;;71.85;61.70;;;34.40;60.70;;;;;;5031610;28;20063;-58
2022/08/11 11:47:21;;;;;;;75.20;67.07;;;34.50;60.60;;;;;;5031304;28;20044;-58
2022/08/11 11:49:48;;;;;;;78.07;64.45;;;34.70;60.50;;;;;;5031662;28;20482;-57
2022/08/11 11:52:17;;;;;;;59.47;53.08;;;34.80;60.20;;;;;;5031532;28;20033;-58
2022/08/11 11:54:45;;;;;;;58.55;51.72;;;34.80;60.20;;;;;;5031537;28;20108;-58
2022/08/11 12:02:42;;;;;;;70.93;62.47;;;35.10;60.50;;;;;;5030620;28;20028;-58
2022/08/11 12:05:10;;;;;;;82.68;73.65;;;35.40;59.50;;;;;;5032887;28;20038;-58
2022/08/11 12:10:22;;;;;;;84.20;75.13;;;35.40;61.30;;;;;;5033715;28;20036;-57
2022/08/11 12:15:34;;;;;;;101.60;89.63;;;35.80;60.70;;;;;;5033594;28;20044;-58
2022/08/11 12:18:01;;;;;;;106.50;94.75;;;35.90;61.20;;;;;;5033372;28;20034;-58
2022/08/11 12:20:27;;;;;;;101.38;90.47;;;36.10;60.80;;;;;;5033274;28;20033;-58
2022/08/11 12:28:38;;;;;;;115.43;103.25;;;36.50;59.50;;;;;;5050812;28;20036;-57
2022/08/11 12:31:08;;;;;;;137.43;122.93;;;36.60;59.90;;;;;;5050587;28;20029;-58
2022/08/11 12:33:35;;;;;;;92.88;83.03;;;36.80;58.50;;;;;;5050895;28;20083;-58
2022/08/11 12:36:01;;;;;;;76.85;68.72;;;36.80;58.50;;;;;;5050897;28;20040;-58
2022/08/11 12:38:28;;;;;;;89.80;80.60;;;36.80;60.10;;;;;;5050499;28;20037;-57
2022/08/11 12:46:32;;;;;;;101.28;90.63;;;37.10;57.80;;;;;;5050575;28;20531;-58
2022/08/11 12:51:57;;;;;;;108.50;96.78;;;37.20;58.20;;;;;;5050684;28;20171;-58
2022/08/11 12:54:33;;;;;;;111.75;100.05;;;37.30;57.80;;;;;;5050308;28;20047;-58
2022/08/11 13:05:24;;;;;;;121.72;109.22;;;37.50;59.70;;;;;;5053119;28;20036;-58
2022/08/11 13:07:51;;;;;;;121.15;108.30;;;37.50;59.20;;;;;;5052761;28;20029;-58
2022/08/11 13:13:23;;;;;;;112.55;100.65;;;37.60;57.80;;;;;;5030338;28;20033;-58
2022/08/11 13:15:50;;;;;;;113.10;101.47;;;37.70;58.00;;;;;;5029720;28;20045;-58
2022/08/11 13:18:21;;;;;;;113.07;101.53;;;37.80;57.50;;;;;;5030054;28;20052;-58
2022/08/11 13:20:52;;;;;;;108.25;96.97;;;37.70;58.40;;;;;;5030377;28;20025;-58
2022/08/11 13:23:18;;;;;;;109.93;98.32;;;37.80;58.60;;;;;;5030457;28;20025;-58
2022/08/11 13:25:44;;;;;;;112.93;101.13;;;37.80;57.70;;;;;;5030409;28;20033;-58
2022/08/11 13:28:11;;;;;;;114.38;102.57;;;37.80;57.40;;;;;;5030410;28;20538;-58
2022/08/11 13:33:24;;;;;;;120.25;107.75;;;37.90;59.50;;;;;;5030621;28;20095;-58
2022/08/11 13:35:53;;;;;;;120.68;108.20;;;38.10;58.70;;;;;;5030403;28;20116;-58
2022/08/11 13:38:23;;;;;;;113.82;101.80;;;38.00;58.20;;;;;;5029802;28;20041;-58
2022/08/11 13:40:50;;;;;;;101.35;90.72;;;38.00;58.60;;;;;;5030090;28;20030;-58
2022/08/11 13:43:18;;;;;;;115.68;103.60;;;38.10;59.40;;;;;;5029561;28;20037;-58
2022/08/11 13:45:46;;;;;;;109.47;97.55;;;38.20;57.30;;;;;;5032217;28;20044;-58
2022/08/11 13:48:14;;;;;;;98.25;87.88;;;38.20;58.50;;;;;;5032086;28;20075;-58
2022/08/11 13:53:28;;;;;;;88.38;79.25;;;38.20;57.90;;;;;;5032158;28;20036;-58
2022/08/11 13:55:56;;;;;;;86.38;77.53;;;38.30;60.10;;;;;;5032024;28;20093;-58
2022/08/11 13:58:22;;;;;;;83.60;75.13;;;38.20;59.70;;;;;;5031714;28;20120;-58
2022/08/11 14:00:50;;;;;;;77.75;69.53;;;38.30;59.50;;;;;;5031952;28;20183;-58
2022/08/11 14:03:21;;;;;;;68.72;61.75;;;38.30;59.40;;;;;;5032114;28;20022;-59
2022/08/11 14:05:51;;;;;;;66.20;59.20;;;38.30;60.50;;;;;;5032010;28;20026;-58
2022/08/11 14:08:23;;;;;;;65.80;59.35;;;38.20;59.10;;;;;;5031997;28;20026;-58
2022/08/11 14:13:36;;;;;;;66.40;59.63;;;38.30;58.20;;;;;;5032051;28;20509;-58
2022/08/11 14:13:42;;;;;;;65.80;59.00;;;38.30;58.40;;;;;;5031831;28;20757;-58
2022/08/11 14:16:14;;;;;;;65.85;59.08;;;38.20;58.20;;;;;;5032256;28;20478;-58
2022/08/11 14:18:45;;;;;;;62.30;55.95;;;38.20;58.80;;;;;;5031934;28;20041;-58
2022/08/11 14:23:59;;;;;;;67.93;60.95;;;38.20;59.50;;;;;;5032216;28;20033;-58
2022/08/11 14:26:26;;;;;;;64.15;57.40;;;38.20;59.80;;;;;;5032510;28;20160;-58
2022/08/11 14:29:03;;;;;;;60.85;54.70;;;38.20;59.80;;;;;;5035630;28;20037;-58
2022/08/11 14:31:32;;;;;;;73.15;66.13;;;38.20;59.00;;;;;;5035340;28;20026;-58
2022/08/11 14:34:01;;;;;;;73.90;66.40;;;38.20;58.00;;;;;;5035562;28;20083;-59
2022/08/11 14:36:38;;;;;;;79.20;71.13;;;38.00;58.90;;;;;;5035292;28;20021;-59
2022/08/11 14:39:12;;;;;;;79.45;71.57;;;38.00;58.50;;;;;;5046110;28;20037;-59
2022/08/11 14:47:16;;;;;;;78.68;70.78;;;37.80;59.00;;;;;;5055574;28;20040;-59
2022/08/11 14:49:42;;;;;;;75.70;68.22;;;37.70;59.50;;;;;;5055168;28;20564;-59
2022/08/11 14:52:16;;;;;;;79.93;71.75;;;37.60;60.30;;;;;;5055030;28;20060;-59
2022/08/11 14:57:31;;;;;;;77.95;70.13;;;37.40;60.70;;;;;;5054886;28;20083;-58
2022/08/11 15:00:00;;;;;;;88.55;79.57;;;37.30;61.20;;;;;;5055184;28;20063;-58
2022/08/11 15:05:11;;;;;;;82.30;73.90;;;37.50;60.40;;;;;;5055342;28;20032;-59
2022/08/11 15:07:38;;;;;;;84.00;75.80;;;37.50;60.50;;;;;;5054909;28;20403;-58
2022/08/11 15:10:06;;;;;;;81.35;72.65;;;37.50;60.90;;;;;;5054712;28;20057;-58
2022/08/11 15:12:34;;;;;;;85.97;77.50;;;37.50;61.60;;;;;;5055005;28;20028;-58
2022/08/11 15:17:49;;;;;;;100.78;90.50;;;37.60;59.50;;;;;;5054860;28;20670;-58
2022/08/11 15:25:57;;;;;;;79.68;71.47;;;37.60;59.70;;;;;;5054579;28;20056;-58
2022/08/11 15:39:36;;;;;;;49.78;44.90;;;37.50;60.00;;;;;;5054018;28;20079;-59
2022/08/11 15:47:56;;;;;;;41.42;37.30;;;37.30;60.60;;;;;;5054445;28;20406;-59
2022/08/11 15:50:27;;;;;;;44.10;39.50;;;37.20;60.00;;;;;;5054140;28;20080;-58
2022/08/11 15:52:58;;;;;;;47.28;42.47;;;37.20;60.10;;;;;;5053989;28;20103;-58
2022/08/11 15:55:25;;;;;;;48.92;43.97;;;37.20;60.30;;;;;;5053603;28;20577;-58
2022/08/11 16:06:09;;;;;;;54.47;48.58;;;37.00;60.50;;;;;;5054063;28;20116;-58
2022/08/11 16:08:38;;;;;;;52.30;47.17;;;37.10;59.90;;;;;;5053449;28;20021;-58
2022/08/11 16:11:04;;;;;;;48.85;43.95;;;37.00;60.60;;;;;;5053777;28;20020;-59
2022/08/11 16:16:15;;;;;;;48.03;43.13;;;36.90;59.90;;;;;;5053749;28;20040;-59
2022/08/11 16:18:52;;;;;;;42.88;38.75;;;36.90;59.50;;;;;;5053540;28;20555;-59
2022/08/11 16:21:32;;;;;;;42.38;38.20;;;36.80;59.60;;;;;;5053484;28;20025;-58
2022/08/11 16:23:59;;;;;;;43.90;39.63;;;36.80;59.30;;;;;;5053224;28;20032;-58
2022/08/11 16:26:28;;;;;;;40.90;36.38;;;36.70;59.40;;;;;;5052239;28;20077;-58
2022/08/11 16:28:58;;;;;;;43.35;38.70;;;36.70;59.50;;;;;;5053210;28;20040;-59
2022/08/11 16:31:26;;;;;;;42.53;38.05;;;36.70;60.00;;;;;;5053255;28;20025;-59
2022/08/11 16:33:53;;;;;;;43.03;37.78;;;36.60;60.00;;;;;;5053206;28;20490;-58
2022/08/11 16:39:10;;;;;;;47.25;42.22;;;36.60;59.90;;;;;;5053045;28;20509;-58
2022/08/11 16:47:15;;;;;;;57.42;51.75;;;36.40;60.30;;;;;;5053252;28;20063;-59
2022/08/11 16:49:42;;;;;;;;;;;36.40;60.40;;;;;;5053035;28;20472;-59
2022/08/11 16:52:10;;;;;;;62.30;56.38;;;36.30;59.60;;;;;;5052615;28;19909;-59
2022/08/11 16:54:37;;;;;;;65.15;58.53;;;36.30;59.80;;;;;;5052985;28;20033;-59
2022/08/11 17:00:00;;;;;;;68.20;61.05;;;36.20;60.10;;;;;;5053240;28;20032;-59
2022/08/11 17:14:10;;;;;;;63.20;56.83;;;35.90;59.90;;;;;;5052953;28;20539;-59
2022/08/11 17:16:38;;;;;;;57.30;51.85;;;35.80;59.90;;;;;;5052389;28;20250;-59
2022/08/11 17:19:07;;;;;;;60.97;54.72;;;35.80;60.60;;;;;;5052559;28;20029;-59
2022/08/11 17:23:45;;;;;;;61.47;55.03;;;35.80;60.20;;;;;;5052379;28;20028;-59
2022/08/11 17:24:27;;;;;;;59.67;53.75;;;35.80;60.50;;;;;;5052474;28;20040;-59
2022/08/11 17:26:58;;;;;;;61.38;55.33;;;35.70;61.30;;;;;;5051099;28;20025;-59
2022/08/11 17:29:42;;;;;;;61.03;54.97;;;35.70;61.10;;;;;;5052621;28;20127;-59
2022/08/11 17:37:47;;;;;;;61.78;55.72;;;35.50;61.40;;;;;;5052371;28;20114;-59
2022/08/11 17:40:23;;;;;;;62.00;55.95;;;35.50;61.20;;;;;;5032462;28;20048;-59
2022/08/11 17:48:24;;;;;;;63.50;56.92;;;35.40;61.90;;;;;;5032741;28;20041;-59
2022/08/11 17:48:28;;;;;;;62.28;55.97;;;35.30;62.20;;;;;;5032214;28;20033;-59
2022/08/11 17:59:52;;;;;;;65.53;58.85;;;35.00;62.90;;;;;;5050247;28;20107;-59
2022/08/11 18:05:18;;;;;;;66.10;59.67;;;34.90;62.50;;;;;;5053948;28;20083;-59
